sensor_id;sensor_type;location;lat;lon;timestamp;pressure;altitude;pressure_sealevel;temperature;humidity
51067;BME280;37112;45.892;-123.962;2022-09-01T00:00:48;101637.92;;;18.37;71.67
51067;BME280;37112;45.892;-123.962;2022-09-01T00:03:02;101634.80;;;18.40;71.85
51067;BME280;37112;45.892;-123.962;2022-09-01T00:05:15;101639.60;;;18.45;72.13
51067;BME280;37112;45.892;-123.962;2022-09-01T00:07:29;101639.66;;;18.44;71.63
51067;BME280;37112;45.892;-123.962;2022-09-01T00:09:43;101643.43;;;18.38;71.59
51067;BME280;37112;45.892;-123.962;2022-09-01T00:11:56;101640.65;;;18.32;71.66
51067;BME280;37112;45.892;-123.962;2022-09-01T00:14:11;101640.23;;;18.31;72.08
51067;BME280;37112;45.892;-123.962;2022-09-01T00:16:39;101638.20;;;18.30;71.90
51067;BME280;37112;45.892;-123.962;2022-09-01T00:18:54;101638.14;;;18.28;72.15
51067;BME280;37112;45.892;-123.962;2022-09-01T00:21:08;101635.45;;;18.28;72.19
51067;BME280;37112;45.892;-123.962;2022-09-01T00:23:21;101633.96;;;18.27;72.17
51067;BME280;37112;45.892;-123.962;2022-09-01T00:25:34;101630.00;;;18.19;71.83
51067;BME280;37112;45.892;-123.962;2022-09-01T00:27:47;101630.60;;;18.09;72.01
51067;BME280;37112;45.892;-123.962;2022-09-01T00:30:01;101631.96;;;18.01;71.52
51067;BME280;37112;45.892;-123.962;2022-09-01T00:32:14;101632.20;;;17.92;71.82
51067;BME280;37112;45.892;-123.962;2022-09-01T00:34:27;101629.96;;;17.87;72.03
51067;BME280;37112;45.892;-123.962;2022-09-01T00:36:40;101630.92;;;17.85;72.28
51067;BME280;37112;45.892;-123.962;2022-09-01T00:38:55;101629.39;;;17.81;72.58
51067;BME280;37112;45.892;-123.962;2022-09-01T00:41:09;101631.02;;;17.77;72.72
51067;BME280;37112;45.892;-123.962;2022-09-01T00:43:34;101627.90;;;17.73;73.29
51067;BME280;37112;45.892;-123.962;2022-09-01T00:45:47;101632.09;;;17.70;73.46
51067;BME280;37112;45.892;-123.962;2022-09-01T00:48:01;101631.64;;;17.71;73.79
51067;BME280;37112;45.892;-123.962;2022-09-01T00:50:18;101634.48;;;17.72;73.95
51067;BME280;37112;45.892;-123.962;2022-09-01T00:52:34;101631.02;;;17.72;73.95
51067;BME280;37112;45.892;-123.962;2022-09-01T00:54:51;101629.38;;;17.75;74.08
51067;BME280;37112;45.892;-123.962;2022-09-01T00:57:06;101630.16;;;17.76;74.14
51067;BME280;37112;45.892;-123.962;2022-09-01T00:59:22;101631.71;;;17.77;74.34
51067;BME280;37112;45.892;-123.962;2022-09-01T01:01:36;101628.17;;;17.80;74.39
51067;BME280;37112;45.892;-123.962;2022-09-01T01:03:49;101625.61;;;17.81;74.38
51067;BME280;37112;45.892;-123.962;2022-09-01T01:06:04;101623.40;;;17.82;74.44
51067;BME280;37112;45.892;-123.962;2022-09-01T01:08:18;101622.88;;;17.81;74.38
51067;BME280;37112;45.892;-123.962;2022-09-01T01:10:40;101622.35;;;17.81;74.34
51067;BME280;37112;45.892;-123.962;2022-09-01T01:12:53;101620.77;;;17.83;74.59
51067;BME280;37112;45.892;-123.962;2022-09-01T01:15:08;101618.79;;;17.81;74.43
51067;BME280;37112;45.892;-123.962;2022-09-01T01:17:22;101622.42;;;17.80;74.72
51067;BME280;37112;45.892;-123.962;2022-09-01T01:19:40;101617.63;;;17.82;74.81
51067;BME280;37112;45.892;-123.962;2022-09-01T01:22:15;101620.81;;;17.83;74.89
51067;BME280;37112;45.892;-123.962;2022-09-01T01:24:48;101622.45;;;17.83;74.76
51067;BME280;37112;45.892;-123.962;2022-09-01T01:27:02;101623.42;;;17.79;74.61
51067;BME280;37112;45.892;-123.962;2022-09-01T01:29:16;101620.27;;;17.78;74.71
51067;BME280;37112;45.892;-123.962;2022-09-01T01:31:29;101618.85;;;17.74;74.58
51067;BME280;37112;45.892;-123.962;2022-09-01T01:33:45;101621.36;;;17.69;74.53
51067;BME280;37112;45.892;-123.962;2022-09-01T01:35:59;101618.71;;;17.67;74.68
51067;BME280;37112;45.892;-123.962;2022-09-01T01:38:13;101615.70;;;17.64;74.58
51067;BME280;37112;45.892;-123.962;2022-09-01T01:40:27;101616.75;;;17.62;74.66
51067;BME280;37112;45.892;-123.962;2022-09-01T01:42:40;101612.30;;;17.60;74.72
51067;BME280;37112;45.892;-123.962;2022-09-01T01:44:54;101617.96;;;17.56;74.73
51067;BME280;37112;45.892;-123.962;2022-09-01T01:47:09;101616.66;;;17.52;74.88
51067;BME280;37112;45.892;-123.962;2022-09-01T01:49:24;101612.95;;;17.51;75.13
51067;BME280;37112;45.892;-123.962;2022-09-01T01:51:38;101617.34;;;17.50;75.26
51067;BME280;37112;45.892;-123.962;2022-09-01T01:53:53;101618.84;;;17.48;75.14
51067;BME280;37112;45.892;-123.962;2022-09-01T01:56:07;101622.73;;;17.44;75.27
51067;BME280;37112;45.892;-123.962;2022-09-01T01:58:23;101622.06;;;17.43;75.43
51067;BME280;37112;45.892;-123.962;2022-09-01T02:00:36;101620.91;;;17.42;75.52
51067;BME280;37112;45.892;-123.962;2022-09-01T02:02:53;101621.73;;;17.39;75.44
51067;BME280;37112;45.892;-123.962;2022-09-01T02:05:07;101620.85;;;17.36;75.51
51067;BME280;37112;45.892;-123.962;2022-09-01T02:07:22;101620.45;;;17.32;75.56
51067;BME280;37112;45.892;-123.962;2022-09-01T02:09:42;101621.45;;;17.29;75.63
51067;BME280;37112;45.892;-123.962;2022-09-01T02:11:57;101621.84;;;17.24;75.73
51067;BME280;37112;45.892;-123.962;2022-09-01T02:14:13;101621.98;;;17.16;75.60
51067;BME280;37112;45.892;-123.962;2022-09-01T02:16:33;101623.77;;;17.09;75.71
51067;BME280;37112;45.892;-123.962;2022-09-01T02:18:47;101623.27;;;17.07;75.76
51067;BME280;37112;45.892;-123.962;2022-09-01T02:21:00;101623.94;;;17.03;75.78
51067;BME280;37112;45.892;-123.962;2022-09-01T02:23:16;101623.56;;;16.98;75.76
51067;BME280;37112;45.892;-123.962;2022-09-01T02:25:33;101615.91;;;16.93;75.85
51067;BME280;37112;45.892;-123.962;2022-09-01T02:28:03;101614.11;;;16.87;75.98
51067;BME280;37112;45.892;-123.962;2022-09-01T02:30:19;101610.18;;;16.82;76.17
51067;BME280;37112;45.892;-123.962;2022-09-01T02:32:34;101613.36;;;16.76;76.19
51067;BME280;37112;45.892;-123.962;2022-09-01T02:34:47;101610.00;;;16.73;76.42
51067;BME280;37112;45.892;-123.962;2022-09-01T02:37:03;101608.98;;;16.70;76.60
51067;BME280;37112;45.892;-123.962;2022-09-01T02:39:17;101607.35;;;16.67;76.78
51067;BME280;37112;45.892;-123.962;2022-09-01T02:41:30;101612.69;;;16.66;76.95
51067;BME280;37112;45.892;-123.962;2022-09-01T02:43:46;101614.14;;;16.66;77.03
51067;BME280;37112;45.892;-123.962;2022-09-01T02:46:01;101617.46;;;16.64;77.16
51067;BME280;37112;45.892;-123.962;2022-09-01T02:48:17;101617.02;;;16.63;77.13
51067;BME280;37112;45.892;-123.962;2022-09-01T02:50:32;101615.36;;;16.61;77.29
51067;BME280;37112;45.892;-123.962;2022-09-01T02:52:48;101619.82;;;16.60;77.34
51067;BME280;37112;45.892;-123.962;2022-09-01T02:55:06;101620.69;;;16.58;77.39
51067;BME280;37112;45.892;-123.962;2022-09-01T02:57:20;101616.84;;;16.54;77.37
51067;BME280;37112;45.892;-123.962;2022-09-01T02:59:34;101613.91;;;16.51;77.34
51067;BME280;37112;45.892;-123.962;2022-09-01T03:01:53;101616.52;;;16.47;77.26
51067;BME280;37112;45.892;-123.962;2022-09-01T03:04:10;101614.81;;;16.43;77.44
51067;BME280;37112;45.892;-123.962;2022-09-01T03:06:25;101618.27;;;16.40;77.48
51067;BME280;37112;45.892;-123.962;2022-09-01T03:08:38;101619.58;;;16.37;77.68
51067;BME280;37112;45.892;-123.962;2022-09-01T03:10:55;101618.73;;;16.35;77.72
51067;BME280;37112;45.892;-123.962;2022-09-01T03:13:13;101617.06;;;16.33;77.80
51067;BME280;37112;45.892;-123.962;2022-09-01T03:15:28;101619.90;;;16.31;77.87
51067;BME280;37112;45.892;-123.962;2022-09-01T03:17:44;101624.73;;;16.29;77.90
51067;BME280;37112;45.892;-123.962;2022-09-01T03:19:58;101626.31;;;16.27;77.99
51067;BME280;37112;45.892;-123.962;2022-09-01T03:22:12;101625.02;;;16.27;78.21
51067;BME280;37112;45.892;-123.962;2022-09-01T03:24:27;101628.54;;;16.26;78.22
51067;BME280;37112;45.892;-123.962;2022-09-01T03:26:43;101631.27;;;16.25;78.32
51067;BME280;37112;45.892;-123.962;2022-09-01T03:28:59;101629.45;;;16.25;78.47
51067;BME280;37112;45.892;-123.962;2022-09-01T03:31:13;101630.02;;;16.28;78.64
51067;BME280;37112;45.892;-123.962;2022-09-01T03:33:29;101628.23;;;16.30;78.63
51067;BME280;37112;45.892;-123.962;2022-09-01T03:35:45;101627.09;;;16.31;78.69
51067;BME280;37112;45.892;-123.962;2022-09-01T03:38:00;101632.27;;;16.33;78.71
51067;BME280;37112;45.892;-123.962;2022-09-01T03:40:15;101629.45;;;16.35;78.86
51067;BME280;37112;45.892;-123.962;2022-09-01T03:42:29;101632.46;;;16.37;78.88
51067;BME280;37112;45.892;-123.962;2022-09-01T03:44:44;101635.05;;;16.39;78.77
51067;BME280;37112;45.892;-123.962;2022-09-01T03:46:59;101633.08;;;16.41;78.84
51067;BME280;37112;45.892;-123.962;2022-09-01T03:49:13;101640.60;;;16.43;78.99
51067;BME280;37112;45.892;-123.962;2022-09-01T03:51:35;101642.56;;;16.48;79.05
51067;BME280;37112;45.892;-123.962;2022-09-01T03:53:50;101645.19;;;16.52;79.08
51067;BME280;37112;45.892;-123.962;2022-09-01T03:56:06;101641.71;;;16.53;78.84
51067;BME280;37112;45.892;-123.962;2022-09-01T03:58:21;101635.39;;;16.51;78.61
51067;BME280;37112;45.892;-123.962;2022-09-01T04:00:37;101635.77;;;16.51;78.69
51067;BME280;37112;45.892;-123.962;2022-09-01T04:03:00;101638.80;;;16.51;78.82
51067;BME280;37112;45.892;-123.962;2022-09-01T04:05:14;101639.93;;;16.53;78.99
51067;BME280;37112;45.892;-123.962;2022-09-01T04:07:28;101641.48;;;16.55;79.02
51067;BME280;37112;45.892;-123.962;2022-09-01T04:09:41;101643.95;;;16.56;78.92
51067;BME280;37112;45.892;-123.962;2022-09-01T04:11:56;101651.19;;;16.57;79.08
51067;BME280;37112;45.892;-123.962;2022-09-01T04:14:12;101656.55;;;16.58;79.10
51067;BME280;37112;45.892;-123.962;2022-09-01T04:16:30;101655.73;;;16.59;79.11
51067;BME280;37112;45.892;-123.962;2022-09-01T04:19:01;101660.82;;;16.58;79.05
51067;BME280;37112;45.892;-123.962;2022-09-01T04:21:25;101656.52;;;16.58;79.06
51067;BME280;37112;45.892;-123.962;2022-09-01T04:23:40;101654.13;;;16.56;79.11
51067;BME280;37112;45.892;-123.962;2022-09-01T04:25:56;101655.30;;;16.55;79.00
51067;BME280;37112;45.892;-123.962;2022-09-01T04:28:09;101650.39;;;16.54;79.02
51067;BME280;37112;45.892;-123.962;2022-09-01T04:30:34;101651.69;;;16.53;79.00
51067;BME280;37112;45.892;-123.962;2022-09-01T04:32:57;101650.66;;;16.53;79.12
51067;BME280;37112;45.892;-123.962;2022-09-01T04:35:11;101650.88;;;16.52;79.22
51067;BME280;37112;45.892;-123.962;2022-09-01T04:37:27;101647.80;;;16.53;79.33
51067;BME280;37112;45.892;-123.962;2022-09-01T04:39:43;101648.98;;;16.54;79.29
51067;BME280;37112;45.892;-123.962;2022-09-01T04:42:06;101651.75;;;16.55;79.31
51067;BME280;37112;45.892;-123.962;2022-09-01T04:44:20;101651.27;;;16.54;79.31
51067;BME280;37112;45.892;-123.962;2022-09-01T04:46:36;101648.33;;;16.55;79.37
51067;BME280;37112;45.892;-123.962;2022-09-01T04:48:55;101647.60;;;16.55;79.36
51067;BME280;37112;45.892;-123.962;2022-09-01T04:51:11;101644.52;;;16.56;79.41
51067;BME280;37112;45.892;-123.962;2022-09-01T04:53:34;101635.17;;;16.56;79.44
51067;BME280;37112;45.892;-123.962;2022-09-01T04:55:48;101631.68;;;16.55;79.33
51067;BME280;37112;45.892;-123.962;2022-09-01T04:58:05;101623.23;;;16.53;79.36
51067;BME280;37112;45.892;-123.962;2022-09-01T05:00:20;101625.04;;;16.50;79.34
51067;BME280;37112;45.892;-123.962;2022-09-01T05:02:37;101626.76;;;16.49;79.30
51067;BME280;37112;45.892;-123.962;2022-09-01T05:04:50;101624.11;;;16.46;79.28
51067;BME280;37112;45.892;-123.962;2022-09-01T05:07:09;101621.80;;;16.43;79.38
51067;BME280;37112;45.892;-123.962;2022-09-01T05:09:24;101622.88;;;16.43;79.58
51067;BME280;37112;45.892;-123.962;2022-09-01T05:11:43;101622.68;;;16.43;79.58
51067;BME280;37112;45.892;-123.962;2022-09-01T05:14:07;101622.95;;;16.42;79.75
51067;BME280;37112;45.892;-123.962;2022-09-01T05:16:21;101625.96;;;16.43;79.86
51067;BME280;37112;45.892;-123.962;2022-09-01T05:18:37;101627.03;;;16.43;79.75
51067;BME280;37112;45.892;-123.962;2022-09-01T05:20:52;101628.67;;;16.42;79.76
51067;BME280;37112;45.892;-123.962;2022-09-01T05:23:07;101627.98;;;16.42;79.75
51067;BME280;37112;45.892;-123.962;2022-09-01T05:25:22;101630.71;;;16.42;79.72
51067;BME280;37112;45.892;-123.962;2022-09-01T05:27:37;101633.84;;;16.40;79.65
51067;BME280;37112;45.892;-123.962;2022-09-01T05:29:50;101637.52;;;16.39;79.66
51067;BME280;37112;45.892;-123.962;2022-09-01T05:32:04;101639.77;;;16.40;79.86
51067;BME280;37112;45.892;-123.962;2022-09-01T05:34:19;101641.20;;;16.40;79.89
51067;BME280;37112;45.892;-123.962;2022-09-01T05:36:37;101644.50;;;16.42;79.96
51067;BME280;37112;45.892;-123.962;2022-09-01T05:38:52;101641.91;;;16.43;79.82
51067;BME280;37112;45.892;-123.962;2022-09-01T05:41:08;101644.57;;;16.41;79.73
51067;BME280;37112;45.892;-123.962;2022-09-01T05:43:24;101641.92;;;16.40;79.72
51067;BME280;37112;45.892;-123.962;2022-09-01T05:45:40;101639.60;;;16.38;79.67
51067;BME280;37112;45.892;-123.962;2022-09-01T05:48:15;101633.92;;;16.37;79.96
51067;BME280;37112;45.892;-123.962;2022-09-01T05:50:31;101630.89;;;16.37;79.81
51067;BME280;37112;45.892;-123.962;2022-09-01T05:52:44;101626.35;;;16.35;79.79
51067;BME280;37112;45.892;-123.962;2022-09-01T05:54:58;101622.53;;;16.34;79.70
51067;BME280;37112;45.892;-123.962;2022-09-01T05:57:12;101618.33;;;16.32;79.73
51067;BME280;37112;45.892;-123.962;2022-09-01T05:59:42;101617.31;;;16.32;79.84
51067;BME280;37112;45.892;-123.962;2022-09-01T06:02:01;101617.48;;;16.30;79.99
51067;BME280;37112;45.892;-123.962;2022-09-01T06:04:18;101619.23;;;16.31;80.13
51067;BME280;37112;45.892;-123.962;2022-09-01T06:06:37;101621.37;;;16.33;80.24
51067;BME280;37112;45.892;-123.962;2022-09-01T06:09:14;101625.04;;;16.34;80.44
51067;BME280;37112;45.892;-123.962;2022-09-01T06:11:28;101626.35;;;16.33;80.15
51067;BME280;37112;45.892;-123.962;2022-09-01T06:13:43;101624.42;;;16.32;80.15
51067;BME280;37112;45.892;-123.962;2022-09-01T06:16:02;101623.61;;;16.32;80.09
51067;BME280;37112;45.892;-123.962;2022-09-01T06:18:15;101624.82;;;16.30;79.98
51067;BME280;37112;45.892;-123.962;2022-09-01T06:20:37;101625.99;;;16.29;80.10
51067;BME280;37112;45.892;-123.962;2022-09-01T06:22:51;101630.02;;;16.28;80.10
51067;BME280;37112;45.892;-123.962;2022-09-01T06:25:04;101627.24;;;16.26;80.09
51067;BME280;37112;45.892;-123.962;2022-09-01T06:27:19;101633.73;;;16.26;80.29
51067;BME280;37112;45.892;-123.962;2022-09-01T06:29:32;101639.70;;;16.21;79.94
51067;BME280;37112;45.892;-123.962;2022-09-01T06:31:46;101643.27;;;16.19;80.14
51067;BME280;37112;45.892;-123.962;2022-09-01T06:34:03;101639.88;;;16.18;80.20
51067;BME280;37112;45.892;-123.962;2022-09-01T06:36:16;101641.99;;;16.16;80.15
51067;BME280;37112;45.892;-123.962;2022-09-01T06:38:30;101639.48;;;16.14;80.28
51067;BME280;37112;45.892;-123.962;2022-09-01T06:40:44;101638.04;;;16.12;80.24
51067;BME280;37112;45.892;-123.962;2022-09-01T06:43:03;101637.05;;;16.11;80.36
51067;BME280;37112;45.892;-123.962;2022-09-01T06:45:21;101638.60;;;16.12;80.64
51067;BME280;37112;45.892;-123.962;2022-09-01T06:47:35;101635.65;;;16.13;80.74
51067;BME280;37112;45.892;-123.962;2022-09-01T06:49:48;101629.36;;;16.13;80.74
51067;BME280;37112;45.892;-123.962;2022-09-01T06:52:07;101622.25;;;16.09;80.49
51067;BME280;37112;45.892;-123.962;2022-09-01T06:54:21;101627.40;;;16.10;80.81
51067;BME280;37112;45.892;-123.962;2022-09-01T06:56:35;101625.84;;;16.07;80.79
51067;BME280;37112;45.892;-123.962;2022-09-01T06:59:00;101623.55;;;16.00;80.61
51067;BME280;37112;45.892;-123.962;2022-09-01T07:01:17;101625.49;;;16.00;80.98
51067;BME280;37112;45.892;-123.962;2022-09-01T07:03:31;101624.81;;;16.00;80.92
51067;BME280;37112;45.892;-123.962;2022-09-01T07:05:58;101624.27;;;16.00;81.02
51067;BME280;37112;45.892;-123.962;2022-09-01T07:08:29;101624.55;;;16.01;81.18
51067;BME280;37112;45.892;-123.962;2022-09-01T07:11:19;101624.73;;;16.01;81.05
51067;BME280;37112;45.892;-123.962;2022-09-01T07:13:58;101631.83;;;15.99;81.17
51067;BME280;37112;45.892;-123.962;2022-09-01T07:16:30;101629.21;;;16.01;81.19
51067;BME280;37112;45.892;-123.962;2022-09-01T07:19:02;101626.94;;;16.00;81.18
51067;BME280;37112;45.892;-123.962;2022-09-01T07:21:17;101626.17;;;16.00;81.41
51067;BME280;37112;45.892;-123.962;2022-09-01T07:23:51;101627.19;;;16.02;81.53
51067;BME280;37112;45.892;-123.962;2022-09-01T07:26:25;101625.73;;;16.02;81.33
51067;BME280;37112;45.892;-123.962;2022-09-01T07:28:39;101628.38;;;16.00;81.33
51067;BME280;37112;45.892;-123.962;2022-09-01T07:30:53;101629.70;;;15.99;81.35
51067;BME280;37112;45.892;-123.962;2022-09-01T07:33:27;101628.16;;;15.98;81.38
51067;BME280;37112;45.892;-123.962;2022-09-01T07:36:02;101629.80;;;15.98;81.48
51067;BME280;37112;45.892;-123.962;2022-09-01T07:38:36;101635.34;;;16.00;81.62
51067;BME280;37112;45.892;-123.962;2022-09-01T07:41:09;101637.13;;;16.00;81.49
51067;BME280;37112;45.892;-123.962;2022-09-01T07:44:06;101633.65;;;15.99;81.43
51067;BME280;37112;45.892;-123.962;2022-09-01T07:46:40;101633.13;;;15.96;81.34
51067;BME280;37112;45.892;-123.962;2022-09-01T07:48:58;101634.70;;;15.94;81.30
51067;BME280;37112;45.892;-123.962;2022-09-01T07:51:32;101633.30;;;15.89;81.16
51067;BME280;37112;45.892;-123.962;2022-09-01T07:53:48;101635.11;;;15.86;81.26
51067;BME280;37112;45.892;-123.962;2022-09-01T07:56:03;101628.20;;;15.85;81.49
51067;BME280;37112;45.892;-123.962;2022-09-01T07:58:25;101625.14;;;15.85;81.63
51067;BME280;37112;45.892;-123.962;2022-09-01T08:00:43;101623.56;;;15.85;81.59
51067;BME280;37112;45.892;-123.962;2022-09-01T08:02:57;101619.35;;;15.84;81.51
51067;BME280;37112;45.892;-123.962;2022-09-01T08:05:13;101618.23;;;15.83;81.57
51067;BME280;37112;45.892;-123.962;2022-09-01T08:07:27;101616.14;;;15.82;81.66
51067;BME280;37112;45.892;-123.962;2022-09-01T08:09:41;101614.34;;;15.82;81.58
51067;BME280;37112;45.892;-123.962;2022-09-01T08:11:56;101617.20;;;15.80;81.57
51067;BME280;37112;45.892;-123.962;2022-09-01T08:14:15;101617.66;;;15.78;81.62
51067;BME280;37112;45.892;-123.962;2022-09-01T08:16:29;101617.74;;;15.77;81.69
51067;BME280;37112;45.892;-123.962;2022-09-01T08:19:01;101622.08;;;15.76;81.86
51067;BME280;37112;45.892;-123.962;2022-09-01T08:21:50;101624.69;;;15.77;81.83
51067;BME280;37112;45.892;-123.962;2022-09-01T08:24:08;101628.13;;;15.75;81.50
51067;BME280;37112;45.892;-123.962;2022-09-01T08:26:23;101629.96;;;15.72;81.56
51067;BME280;37112;45.892;-123.962;2022-09-01T08:28:37;101629.02;;;15.70;81.67
51067;BME280;37112;45.892;-123.962;2022-09-01T08:30:55;101632.16;;;15.69;81.62
51067;BME280;37112;45.892;-123.962;2022-09-01T08:33:09;101630.51;;;15.67;81.72
51067;BME280;37112;45.892;-123.962;2022-09-01T08:35:25;101629.28;;;15.64;81.60
51067;BME280;37112;45.892;-123.962;2022-09-01T08:37:39;101627.69;;;15.64;81.85
51067;BME280;37112;45.892;-123.962;2022-09-01T08:39:52;101626.45;;;15.64;81.75
51067;BME280;37112;45.892;-123.962;2022-09-01T08:42:10;101630.17;;;15.62;81.61
51067;BME280;37112;45.892;-123.962;2022-09-01T08:44:31;101635.05;;;15.61;81.80
51067;BME280;37112;45.892;-123.962;2022-09-01T08:46:47;101638.64;;;15.61;81.90
51067;BME280;37112;45.892;-123.962;2022-09-01T08:49:03;101638.71;;;15.60;81.98
51067;BME280;37112;45.892;-123.962;2022-09-01T08:52:01;101647.58;;;15.61;82.04
51067;BME280;37112;45.892;-123.962;2022-09-01T08:54:25;101653.06;;;15.59;81.99
51067;BME280;37112;45.892;-123.962;2022-09-01T08:56:41;101652.98;;;15.58;82.11
51067;BME280;37112;45.892;-123.962;2022-09-01T08:58:55;101651.58;;;15.58;82.05
51067;BME280;37112;45.892;-123.962;2022-09-01T09:01:42;101647.50;;;15.54;81.89
51067;BME280;37112;45.892;-123.962;2022-09-01T09:04:08;101642.42;;;15.51;81.93
51067;BME280;37112;45.892;-123.962;2022-09-01T09:06:28;101641.67;;;15.49;82.07
51067;BME280;37112;45.892;-123.962;2022-09-01T09:08:59;101634.58;;;15.48;82.14
51067;BME280;37112;45.892;-123.962;2022-09-01T09:11:23;101634.52;;;15.46;82.32
51067;BME280;37112;45.892;-123.962;2022-09-01T09:13:53;101640.91;;;15.44;82.40
51067;BME280;37112;45.892;-123.962;2022-09-01T09:16:10;101631.14;;;15.44;82.41
51067;BME280;37112;45.892;-123.962;2022-09-01T09:18:31;101625.11;;;15.43;82.40
51067;BME280;37112;45.892;-123.962;2022-09-01T09:20:49;101626.45;;;15.42;82.34
51067;BME280;37112;45.892;-123.962;2022-09-01T09:23:04;101625.08;;;15.40;82.50
51067;BME280;37112;45.892;-123.962;2022-09-01T09:25:19;101626.64;;;15.39;82.55
51067;BME280;37112;45.892;-123.962;2022-09-01T09:27:35;101631.92;;;15.38;82.59
51067;BME280;37112;45.892;-123.962;2022-09-01T09:29:50;101633.10;;;15.37;82.71
51067;BME280;37112;45.892;-123.962;2022-09-01T09:32:09;101628.33;;;15.36;82.83
51067;BME280;37112;45.892;-123.962;2022-09-01T09:34:43;101625.63;;;15.36;82.93
51067;BME280;37112;45.892;-123.962;2022-09-01T09:36:56;101627.39;;;15.36;82.97
51067;BME280;37112;45.892;-123.962;2022-09-01T09:39:11;101627.21;;;15.36;83.01
51067;BME280;37112;45.892;-123.962;2022-09-01T09:41:25;101633.41;;;15.37;83.13
51067;BME280;37112;45.892;-123.962;2022-09-01T09:43:41;101629.64;;;15.37;83.14
51067;BME280;37112;45.892;-123.962;2022-09-01T09:46:24;101627.15;;;15.37;83.06
51067;BME280;37112;45.892;-123.962;2022-09-01T09:48:38;101625.59;;;15.36;83.05
51067;BME280;37112;45.892;-123.962;2022-09-01T09:50:51;101620.90;;;15.37;83.17
51067;BME280;37112;45.892;-123.962;2022-09-01T09:53:25;101620.63;;;15.36;83.06
51067;BME280;37112;45.892;-123.962;2022-09-01T09:55:53;101617.02;;;15.33;82.98
51067;BME280;37112;45.892;-123.962;2022-09-01T09:58:13;101618.19;;;15.30;83.02
51067;BME280;37112;45.892;-123.962;2022-09-01T10:00:27;101622.73;;;15.26;83.01
51067;BME280;37112;45.892;-123.962;2022-09-01T10:02:44;101619.85;;;15.24;83.06
51067;BME280;37112;45.892;-123.962;2022-09-01T10:04:57;101618.94;;;15.24;83.18
51067;BME280;37112;45.892;-123.962;2022-09-01T10:07:28;101620.48;;;15.25;83.30
51067;BME280;37112;45.892;-123.962;2022-09-01T10:09:41;101620.70;;;15.27;83.49
51067;BME280;37112;45.892;-123.962;2022-09-01T10:11:56;101617.52;;;15.26;83.42
51067;BME280;37112;45.892;-123.962;2022-09-01T10:14:16;101619.02;;;15.26;83.40
51067;BME280;37112;45.892;-123.962;2022-09-01T10:16:55;101619.02;;;15.26;83.42
51067;BME280;37112;45.892;-123.962;2022-09-01T10:19:14;101620.23;;;15.26;83.46
51067;BME280;37112;45.892;-123.962;2022-09-01T10:21:33;101616.21;;;15.27;83.51
51067;BME280;37112;45.892;-123.962;2022-09-01T10:23:47;101610.86;;;15.27;83.46
51067;BME280;37112;45.892;-123.962;2022-09-01T10:26:04;101609.73;;;15.25;83.33
51067;BME280;37112;45.892;-123.962;2022-09-01T10:28:21;101608.34;;;15.25;83.38
51067;BME280;37112;45.892;-123.962;2022-09-01T10:30:36;101604.76;;;15.25;83.47
51067;BME280;37112;45.892;-123.962;2022-09-01T10:32:53;101598.55;;;15.24;83.46
51067;BME280;37112;45.892;-123.962;2022-09-01T10:35:29;101599.87;;;15.23;83.47
51067;BME280;37112;45.892;-123.962;2022-09-01T10:37:43;101602.16;;;15.21;83.45
51067;BME280;37112;45.892;-123.962;2022-09-01T10:40:19;101601.94;;;15.22;83.70
51067;BME280;37112;45.892;-123.962;2022-09-01T10:42:52;101604.94;;;15.25;83.85
51067;BME280;37112;45.892;-123.962;2022-09-01T10:45:07;101611.48;;;15.26;83.92
51067;BME280;37112;45.892;-123.962;2022-09-01T10:47:30;101606.95;;;15.27;84.00
51067;BME280;37112;45.892;-123.962;2022-09-01T10:50:00;101603.70;;;15.29;84.14
51067;BME280;37112;45.892;-123.962;2022-09-01T10:55:04;101602.48;;;15.34;84.11
51067;BME280;37112;45.892;-123.962;2022-09-01T10:57:33;101606.02;;;15.35;84.05
51067;BME280;37112;45.892;-123.962;2022-09-01T10:59:51;101605.30;;;15.35;83.93
51067;BME280;37112;45.892;-123.962;2022-09-01T11:02:15;101605.05;;;15.33;83.83
51067;BME280;37112;45.892;-123.962;2022-09-01T11:07:31;101600.64;;;15.35;83.92
51067;BME280;37112;45.892;-123.962;2022-09-01T11:10:32;101600.48;;;15.37;84.09
51067;BME280;37112;45.892;-123.962;2022-09-01T11:13:00;101600.67;;;15.39;84.11
51067;BME280;37112;45.892;-123.962;2022-09-01T11:15:37;101599.50;;;15.40;83.98
51067;BME280;37112;45.892;-123.962;2022-09-01T11:17:58;101595.23;;;15.40;83.88
51067;BME280;37112;45.892;-123.962;2022-09-01T11:20:19;101594.48;;;15.41;83.87
51067;BME280;37112;45.892;-123.962;2022-09-01T11:22:37;101599.44;;;15.42;83.90
51067;BME280;37112;45.892;-123.962;2022-09-01T11:25:04;101593.85;;;15.42;83.87
51067;BME280;37112;45.892;-123.962;2022-09-01T11:30:06;101589.91;;;15.40;83.70
51067;BME280;37112;45.892;-123.962;2022-09-01T11:32:23;101593.42;;;15.38;83.80
51067;BME280;37112;45.892;-123.962;2022-09-01T11:34:42;101593.70;;;15.39;83.93
51067;BME280;37112;45.892;-123.962;2022-09-01T11:37:00;101597.69;;;15.41;84.03
51067;BME280;37112;45.892;-123.962;2022-09-01T11:39:34;101594.42;;;15.42;84.01
51067;BME280;37112;45.892;-123.962;2022-09-01T11:41:53;101594.05;;;15.42;84.03
51067;BME280;37112;45.892;-123.962;2022-09-01T11:44:16;101598.86;;;15.42;84.04
51067;BME280;37112;45.892;-123.962;2022-09-01T11:46:32;101604.30;;;15.44;83.99